Time;durP1;ratioP1;P1;durP2;ratioP2;P2;SDS_P1;SDS_P2;PMS_P1;PMS_P2;Temp;Humidity;BMP_temperature;BMP_pressure;BME280_temperature;BME280_humidity;BME280_pressure;Samples;Min_cycle;Max_cycle;Signal;HPM_P1;HPM_P2
2023/09/28 00:01:31;;;;;;;22.50;7.50;;;18.00;92.70;;;;;;5027073;28;20088;-53
2023/09/28 00:03:56;;;;;;;23.85;7.53;;;18.00;92.70;;;;;;5028180;28;20504;-52
2023/09/28 00:06:22;;;;;;;20.27;7.68;;;18.00;92.70;;;;;;5028013;28;20504;-53
2023/09/28 00:08:48;;;;;;;22.88;7.70;;;17.90;92.70;;;;;;4990507;28;20098;-53
2023/09/28 00:11:13;;;;;;;26.08;7.50;;;17.90;92.70;;;;;;5011851;28;20034;-51
2023/09/28 00:13:39;;;;;;;19.83;7.13;;;17.90;92.70;;;;;;5029290;28;20022;-52
2023/09/28 00:16:04;;;;;;;22.83;7.00;;;17.90;92.70;;;;;;5028149;28;20457;-52
2023/09/28 00:18:30;;;;;;;20.63;7.43;;;17.90;92.80;;;;;;5006218;28;20093;-51
2023/09/28 00:20:56;;;;;;;17.63;7.00;;;17.90;92.80;;;;;;5010272;28;20133;-51
2023/09/28 00:23:21;;;;;;;13.35;6.80;;;17.80;92.80;;;;;;5026989;28;20057;-52
2023/09/28 00:25:47;;;;;;;14.20;7.15;;;17.80;92.80;;;;;;5029218;28;20049;-52
2023/09/28 00:28:13;;;;;;;19.65;7.20;;;17.80;92.80;;;;;;5022041;28;20030;-52
2023/09/28 00:30:38;;;;;;;17.88;6.82;;;17.80;92.90;;;;;;4993817;28;20030;-52
2023/09/28 00:33:04;;;;;;;16.27;6.20;;;17.80;92.90;;;;;;5028014;28;20021;-52
2023/09/28 00:35:30;;;;;;;20.30;7.03;;;17.80;92.90;;;;;;5030070;28;20029;-51
2023/09/28 00:37:55;;;;;;;15.35;6.68;;;17.80;92.90;;;;;;5028230;28;20025;-51
2023/09/28 00:40:28;;;;;;;19.55;5.95;;;17.80;92.90;;;;;;4995333;28;20038;-51
2023/09/28 00:42:54;;;;;;;16.35;6.40;;;17.80;92.90;;;;;;5028937;28;20057;-51
2023/09/28 00:45:22;;;;;;;13.82;6.38;;;17.70;92.90;;;;;;5031740;28;20030;-52
2023/09/28 00:47:51;;;;;;;19.65;5.97;;;17.70;92.90;;;;;;5027560;28;20026;-50
2023/09/28 00:50:17;;;;;;;12.85;6.85;;;17.80;93.00;;;;;;5011573;28;20040;-51
2023/09/28 00:52:46;;;;;;;13.02;6.07;;;17.70;93.00;;;;;;5027358;28;20029;-51
2023/09/28 00:55:12;;;;;;;17.70;6.05;;;17.70;93.00;;;;;;5024684;28;20036;-51
2023/09/28 00:57:42;;;;;;;17.45;6.65;;;17.70;93.00;;;;;;5010981;28;20022;-51
2023/09/28 01:02:52;;;;;;;16.42;6.78;;;17.70;93.00;;;;;;5029684;28;20063;-52
2023/09/28 01:05:18;;;;;;;12.77;6.07;;;17.70;93.30;;;;;;5027076;28;20042;-51
2023/09/28 01:07:44;;;;;;;11.55;6.15;;;17.70;93.10;;;;;;5010607;28;20057;-51
2023/09/28 01:10:12;;;;;;;16.67;6.38;;;17.70;93.10;;;;;;5028140;28;20030;-51
2023/09/28 01:12:41;;;;;;;14.05;6.35;;;17.60;93.10;;;;;;5021011;28;20018;-51
2023/09/28 01:15:10;;;;;;;18.88;6.03;;;17.60;93.10;;;;;;5011773;28;20125;-51
2023/09/28 01:17:36;;;;;;;12.30;6.03;;;17.60;93.20;;;;;;5028925;28;20022;-51
2023/09/28 01:20:23;;;;;;;12.48;6.22;;;17.60;93.20;;;;;;5010246;28;20049;-51
2023/09/28 01:22:49;;;;;;;13.50;5.95;;;17.60;93.20;;;;;;5022253;28;20053;-51
2023/09/28 01:25:15;;;;;;;12.82;5.97;;;17.60;93.20;;;;;;5027849;28;20042;-51
2023/09/28 01:27:47;;;;;;;12.75;5.82;;;17.50;93.30;;;;;;5026554;28;20026;-51
2023/09/28 01:30:14;;;;;;;15.18;6.40;;;17.50;93.30;;;;;;5028776;28;20037;-51
2023/09/28 01:32:39;;;;;;;10.95;5.65;;;17.50;93.40;;;;;;5026661;28;20081;-52
2023/09/28 01:35:06;;;;;;;11.23;5.57;;;17.50;93.40;;;;;;5027759;28;20105;-52
2023/09/28 01:37:36;;;;;;;9.00;5.05;;;17.50;93.70;;;;;;5010038;28;20037;-51
2023/09/28 01:40:02;;;;;;;8.70;5.03;;;17.50;93.40;;;;;;5003255;28;20061;-51
2023/09/28 01:42:28;;;;;;;11.57;5.78;;;17.50;93.50;;;;;;5022899;28;20054;-52
2023/09/28 01:44:53;;;;;;;12.25;5.65;;;17.50;93.50;;;;;;5039463;28;20054;-51
2023/09/28 01:47:19;;;;;;;11.50;5.25;;;17.40;93.50;;;;;;5022616;28;20512;-51
2023/09/28 01:49:44;;;;;;;9.25;5.05;;;17.40;93.50;;;;;;5026080;28;20037;-51
2023/09/28 01:52:10;;;;;;;9.55;5.68;;;17.40;93.60;;;;;;5025832;28;20022;-52
2023/09/28 01:54:35;;;;;;;8.45;5.70;;;17.40;93.80;;;;;;5027178;28;20057;-52
2023/09/28 01:57:01;;;;;;;9.00;5.88;;;17.40;93.60;;;;;;5026548;28;20025;-52
2023/09/28 01:59:26;;;;;;;14.75;5.40;;;17.50;93.60;;;;;;5030286;28;20064;-51
2023/09/28 02:01:52;;;;;;;12.65;5.72;;;17.40;93.60;;;;;;5025844;28;20033;-51
2023/09/28 02:04:17;;;;;;;12.20;6.35;;;17.40;93.60;;;;;;5027102;28;20034;-51
2023/09/28 02:06:43;;;;;;;11.65;6.55;;;17.40;93.60;;;;;;5029757;28;20022;-52
2023/09/28 02:09:10;;;;;;;14.73;6.35;;;17.40;93.60;;;;;;5025217;28;20040;-51
2023/09/28 02:11:43;;;;;;;11.20;5.85;;;17.40;93.60;;;;;;5024123;28;20033;-51
2023/09/28 02:14:10;;;;;;;11.32;5.97;;;17.40;93.60;;;;;;5025431;28;20029;-52
2023/09/28 02:16:36;;;;;;;15.50;6.13;;;17.40;93.70;;;;;;5020848;28;20108;-51
2023/09/28 02:19:01;;;;;;;10.48;6.07;;;17.40;93.60;;;;;;5026775;28;20417;-51
2023/09/28 02:21:27;;;;;;;10.70;5.93;;;17.40;93.60;;;;;;5026668;28;20433;-51
2023/09/28 02:23:53;;;;;;;8.65;5.68;;;17.40;93.60;;;;;;5026575;28;20036;-52
2023/09/28 02:26:19;;;;;;;10.25;6.20;;;17.40;93.70;;;;;;5020687;28;20057;-51
2023/09/28 02:28:44;;;;;;;10.10;7.07;;;17.40;93.70;;;;;;5026546;28;20108;-51
2023/09/28 02:31:10;;;;;;;11.45;7.45;;;17.40;93.70;;;;;;5026841;28;20018;-51
2023/09/28 02:33:36;;;;;;;11.35;6.97;;;17.30;93.70;;;;;;5026172;28;20018;-52
2023/09/28 02:36:01;;;;;;;9.93;7.20;;;17.30;93.80;;;;;;5029901;28;20037;-51
2023/09/28 02:38:28;;;;;;;14.55;7.10;;;17.30;93.80;;;;;;5026818;28;20057;-51
2023/09/28 02:40:54;;;;;;;13.55;6.90;;;17.30;93.80;;;;;;5025261;28;20041;-51
2023/09/28 02:43:19;;;;;;;16.08;7.03;;;17.30;94.00;;;;;;5023898;28;20030;-51
2023/09/28 02:45:45;;;;;;;10.98;6.07;;;17.40;94.00;;;;;;5008906;28;20034;-52
2023/09/28 02:48:11;;;;;;;12.98;6.95;;;17.30;94.10;;;;;;5026245;28;20090;-51
2023/09/28 02:50:36;;;;;;;12.20;6.00;;;17.30;94.10;;;;;;5026489;28;20030;-51
2023/09/28 02:53:02;;;;;;;9.02;6.32;;;17.30;94.10;;;;;;5029354;28;20058;-51
2023/09/28 02:55:28;;;;;;;10.43;6.05;;;17.30;94.20;;;;;;5026368;28;20029;-51
2023/09/28 02:57:53;;;;;;;11.75;6.05;;;17.30;94.20;;;;;;5024955;28;20030;-51
2023/09/28 03:00:32;;;;;;;8.75;6.15;;;17.30;94.20;;;;;;5026198;28;20034;-51
2023/09/28 03:02:58;;;;;;;10.10;6.13;;;17.30;94.20;;;;;;5005568;28;20040;-51
2023/09/28 03:05:26;;;;;;;11.95;5.80;;;17.30;94.20;;;;;;5024964;28;20051;-51
2023/09/28 03:07:51;;;;;;;8.48;6.07;;;17.30;94.20;;;;;;5024960;28;20121;-51
2023/09/28 03:10:17;;;;;;;10.45;6.30;;;17.30;94.20;;;;;;5026722;28;20046;-52
2023/09/28 03:12:45;;;;;;;7.80;5.82;;;17.30;94.20;;;;;;5028023;28;20402;-52
2023/09/28 03:15:10;;;;;;;10.55;7.70;;;17.30;94.20;;;;;;5008982;28;20358;-51
2023/09/28 03:17:37;;;;;;;12.70;7.70;;;17.30;94.30;;;;;;5024875;28;20026;-51
2023/09/28 03:20:17;;;;;;;13.13;8.55;;;17.30;94.60;;;;;;5020832;28;20033;-52
2023/09/28 03:22:43;;;;;;;11.75;8.00;;;17.30;94.30;;;;;;5025460;28;20038;-52
2023/09/28 03:25:13;;;;;;;11.07;7.00;;;17.30;94.30;;;;;;5026097;28;20040;-51
2023/09/28 03:27:40;;;;;;;10.57;7.57;;;17.30;94.30;;;;;;5024694;28;20038;-51
2023/09/28 03:30:10;;;;;;;11.27;7.25;;;17.30;94.30;;;;;;5027137;28;20505;-52
2023/09/28 03:32:39;;;;;;;9.35;6.68;;;17.30;94.40;;;;;;5008729;28;20061;-52
2023/09/28 03:35:07;;;;;;;8.25;6.00;;;17.30;94.40;;;;;;5026560;28;20379;-51
2023/09/28 03:37:33;;;;;;;9.23;6.72;;;17.30;94.40;;;;;;5028722;28;20041;-51
2023/09/28 03:40:00;;;;;;;9.10;6.07;;;17.30;94.50;;;;;;5032536;28;20121;-52
2023/09/28 03:42:28;;;;;;;10.50;6.18;;;17.30;94.50;;;;;;5012521;28;20037;-51
2023/09/28 03:44:54;;;;;;;9.68;5.82;;;17.20;94.50;;;;;;5029760;28;20030;-51
2023/09/28 03:47:20;;;;;;;9.38;5.80;;;17.20;94.50;;;;;;5032145;28;20053;-52
2023/09/28 03:49:45;;;;;;;11.38;6.32;;;17.30;94.60;;;;;;5028377;28;20060;-52
2023/09/28 03:52:11;;;;;;;8.88;6.35;;;17.30;94.60;;;;;;5011846;28;20018;-51
2023/09/28 03:54:36;;;;;;;12.23;6.50;;;17.30;94.60;;;;;;5028094;28;20037;-51
2023/09/28 03:57:02;;;;;;;12.07;6.20;;;17.30;94.70;;;;;;5023255;28;20034;-51
2023/09/28 03:59:28;;;;;;;7.00;5.50;;;17.30;94.70;;;;;;5029745;28;20034;-52
2023/09/28 04:01:53;;;;;;;10.52;6.40;;;17.30;94.70;;;;;;5028287;28;20109;-52
2023/09/28 04:04:19;;;;;;;10.85;6.47;;;17.30;94.70;;;;;;5012168;28;20037;-52
2023/09/28 04:06:45;;;;;;;11.02;6.57;;;17.30;94.70;;;;;;5031433;28;20030;-51
2023/09/28 04:09:11;;;;;;;10.85;6.75;;;17.30;94.80;;;;;;5026603;28;20458;-52
2023/09/28 04:11:37;;;;;;;8.57;6.82;;;17.20;94.80;;;;;;5027938;28;20044;-51
2023/09/28 04:14:02;;;;;;;13.18;6.43;;;17.20;94.80;;;;;;5029175;28;20065;-52
2023/09/28 04:16:28;;;;;;;10.90;6.50;;;17.30;95.20;;;;;;5030554;28;20026;-52
2023/09/28 04:18:53;;;;;;;10.55;6.85;;;17.20;94.90;;;;;;4995313;28;20040;-52
2023/09/28 04:21:19;;;;;;;11.18;6.80;;;17.20;94.90;;;;;;5027957;28;20040;-51
2023/09/28 04:23:44;;;;;;;9.63;6.75;;;17.20;94.90;;;;;;5026524;28;20038;-52
2023/09/28 04:26:10;;;;;;;9.10;5.80;;;17.20;94.90;;;;;;5027646;28;20037;-52
2023/09/28 04:28:36;;;;;;;17.90;7.45;;;17.20;95.00;;;;;;5028176;28;20560;-51
2023/09/28 04:31:01;;;;;;;10.65;6.80;;;17.20;95.00;;;;;;5027589;28;20362;-51
2023/09/28 04:33:27;;;;;;;20.67;7.72;;;17.20;95.10;;;;;;5032185;28;20034;-51
2023/09/28 04:35:53;;;;;;;28.35;8.63;;;17.20;95.20;;;;;;5011176;28;20030;-52
2023/09/28 04:38:19;;;;;;;32.22;8.27;;;17.20;95.30;;;;;;5028760;28;20049;-51
2023/09/28 04:40:45;;;;;;;15.95;7.63;;;17.20;95.30;;;;;;5011137;28;20036;-51
2023/09/28 04:43:10;;;;;;;26.45;7.93;;;17.20;95.30;;;;;;5022718;28;20568;-51
2023/09/28 04:45:36;;;;;;;75.32;12.00;;;17.20;95.30;;;;;;5027257;28;20030;-51
2023/09/28 04:48:02;;;;;;;44.58;10.70;;;17.20;95.30;;;;;;5027175;28;20052;-52
2023/09/28 04:50:27;;;;;;;37.38;9.32;;;17.20;95.30;;;;;;5026906;28;20058;-51
2023/09/28 04:52:54;;;;;;;63.67;10.95;;;17.10;95.30;;;;;;5031354;28;20033;-51
2023/09/28 04:55:20;;;;;;;42.85;9.95;;;17.20;95.30;;;;;;5027110;28;20034;-52
2023/09/28 04:57:45;;;;;;;40.80;10.52;;;17.20;95.30;;;;;;5026972;28;20035;-52
2023/09/28 05:00:15;;;;;;;31.98;8.50;;;17.20;95.30;;;;;;5022114;28;20537;-51
2023/09/28 05:02:42;;;;;;;30.90;7.70;;;17.20;95.20;;;;;;5011837;28;20029;-51
2023/09/28 05:05:08;;;;;;;62.55;11.57;;;17.20;95.30;;;;;;5033382;28;20034;-52
2023/09/28 05:07:34;;;;;;;35.63;9.65;;;17.20;95.30;;;;;;5025275;28;20131;-51
2023/09/28 05:10:00;;;;;;;33.10;9.50;;;17.20;95.30;;;;;;5019796;28;20030;-52
2023/09/28 05:12:25;;;;;;;49.20;10.65;;;17.20;95.30;;;;;;5026696;28;20022;-52
2023/09/28 05:14:51;;;;;;;101.82;14.27;;;17.20;95.40;;;;;;5027760;28;20075;-52
2023/09/28 05:17:16;;;;;;;86.22;14.45;;;17.20;95.40;;;;;;5039847;28;20116;-52
2023/09/28 05:19:42;;;;;;;55.47;12.10;;;17.20;95.40;;;;;;5030769;28;20044;-52
2023/09/28 05:22:10;;;;;;;69.93;12.38;;;17.10;95.50;;;;;;5027596;28;20042;-52
2023/09/28 05:24:35;;;;;;;74.13;12.15;;;17.10;95.60;;;;;;5048089;28;20061;-51
2023/09/28 05:27:01;;;;;;;91.65;14.55;;;17.20;95.60;;;;;;5035917;28;20172;-51
2023/09/28 05:29:29;;;;;;;81.13;15.10;;;17.20;95.60;;;;;;5034739;28;20113;-51
2023/09/28 05:31:55;;;;;;;96.93;14.55;;;17.10;95.50;;;;;;5019104;28;20018;-51
2023/09/28 05:34:21;;;;;;;127.20;17.65;;;17.20;95.60;;;;;;5026987;28;20052;-52
2023/09/28 05:36:47;;;;;;;97.68;18.13;;;17.20;95.60;;;;;;5005780;28;20033;-52
2023/09/28 05:39:12;;;;;;;90.57;16.85;;;17.10;95.60;;;;;;5037909;28;20038;-51
2023/09/28 05:41:38;;;;;;;105.80;15.80;;;17.10;95.60;;;;;;5021248;28;20020;-51
2023/09/28 05:44:04;;;;;;;95.43;16.10;;;17.10;95.60;;;;;;5042646;28;20084;-51
2023/09/28 05:46:30;;;;;;;75.05;15.15;;;17.10;95.80;;;;;;5010855;28;20030;-51
2023/09/28 05:48:56;;;;;;;66.85;13.60;;;17.10;95.80;;;;;;5026292;28;20076;-51
2023/09/28 05:51:21;;;;;;;77.97;14.65;;;17.20;95.80;;;;;;5029801;28;20021;-51
2023/09/28 05:53:50;;;;;;;83.03;14.63;;;17.10;95.80;;;;;;5044193;28;20062;-51
2023/09/28 05:56:16;;;;;;;98.43;17.25;;;17.20;95.90;;;;;;5044255;28;20117;-52
2023/09/28 05:58:42;;;;;;;97.93;16.05;;;17.10;95.90;;;;;;5043012;28;20025;-52
2023/09/28 06:01:12;;;;;;;103.50;17.73;;;17.10;95.90;;;;;;5042522;28;20030;-52
2023/09/28 06:03:38;;;;;;;96.60;15.82;;;17.10;95.90;;;;;;5036160;28;20041;-51
2023/09/28 06:06:15;;;;;;;88.00;15.73;;;17.10;95.90;;;;;;5024300;28;20045;-51
2023/09/28 06:08:40;;;;;;;75.18;12.45;;;17.10;96.00;;;;;;5023509;28;20046;-52
2023/09/28 06:11:09;;;;;;;71.32;12.40;;;17.10;96.30;;;;;;5022628;28;20021;-52
2023/09/28 06:13:35;;;;;;;70.03;14.20;;;17.10;96.40;;;;;;5029893;28;20026;-51
2023/09/28 06:16:00;;;;;;;73.38;13.07;;;17.00;96.50;;;;;;5024264;28;20090;-51
2023/09/28 06:18:26;;;;;;;65.85;13.05;;;17.00;96.70;;;;;;5040107;28;20025;-51
2023/09/28 06:20:51;;;;;;;79.38;14.25;;;17.10;96.90;;;;;;5038721;28;20045;-51
2023/09/28 06:23:18;;;;;;;91.18;14.82;;;17.00;97.10;;;;;;5031556;28;20040;-51
2023/09/28 06:25:44;;;;;;;60.05;13.90;;;17.00;97.30;;;;;;5043604;28;20089;-52
2023/09/28 06:28:10;;;;;;;49.63;11.23;;;17.00;97.40;;;;;;5045975;28;20033;-51
2023/09/28 06:30:35;;;;;;;51.85;11.00;;;17.00;97.50;;;;;;5045052;28;20025;-52
2023/09/28 06:33:02;;;;;;;47.58;11.18;;;16.90;97.60;;;;;;5031827;28;20021;-52
2023/09/28 06:35:27;;;;;;;42.75;10.52;;;16.90;97.80;;;;;;5043753;28;20036;-52
2023/09/28 06:37:53;;;;;;;36.50;9.50;;;17.00;97.80;;;;;;5043651;28;20025;-52
2023/09/28 06:40:19;;;;;;;40.53;9.77;;;16.90;97.90;;;;;;5034296;28;20129;-51
2023/09/28 06:42:44;;;;;;;32.78;8.57;;;16.90;97.90;;;;;;5006556;28;20018;-52
2023/09/28 06:45:11;;;;;;;36.08;9.05;;;16.90;98.00;;;;;;5023448;28;20037;-51
2023/09/28 06:47:36;;;;;;;32.70;9.02;;;17.00;98.20;;;;;;5025855;28;20066;-51
2023/09/28 06:50:04;;;;;;;49.72;10.35;;;17.00;98.20;;;;;;5026681;28;20038;-51
2023/09/28 06:52:30;;;;;;;77.32;12.35;;;16.90;98.30;;;;;;5025121;28;20033;-52
2023/09/28 06:54:55;;;;;;;39.35;8.82;;;16.90;98.50;;;;;;5024798;28;20117;-51
2023/09/28 06:57:21;;;;;;;39.40;10.18;;;17.00;98.90;;;;;;5024932;28;20029;-51
2023/09/28 06:59:46;;;;;;;57.42;11.32;;;17.00;99.00;;;;;;5025431;28;20029;-51
2023/09/28 07:02:12;;;;;;;105.28;14.85;;;17.10;99.00;;;;;;5026952;28;20053;-51
2023/09/28 07:04:38;;;;;;;42.80;9.02;;;17.00;99.10;;;;;;5045735;28;20091;-51
2023/09/28 07:07:03;;;;;;;52.50;9.40;;;17.00;99.10;;;;;;5045789;28;20072;-51
2023/09/28 07:09:29;;;;;;;16.85;7.20;;;17.00;99.20;;;;;;5023974;28;20111;-51
2023/09/28 07:11:54;;;;;;;31.30;7.15;;;17.00;98.90;;;;;;5048530;28;20029;-51
2023/09/28 07:14:20;;;;;;;42.20;8.23;;;17.00;98.60;;;;;;5049844;28;20097;-52
2023/09/28 07:16:46;;;;;;;27.45;7.75;;;17.00;98.80;;;;;;5045691;28;20032;-51
2023/09/28 07:19:12;;;;;;;17.13;6.97;;;17.00;99.20;;;;;;5030869;28;20050;-51
2023/09/28 07:21:37;;;;;;;24.90;7.63;;;17.00;99.10;;;;;;5048721;28;20033;-52
2023/09/28 07:24:03;;;;;;;22.80;7.93;;;17.00;99.00;;;;;;5048515;28;20462;-51
2023/09/28 07:26:29;;;;;;;23.35;7.90;;;17.00;99.00;;;;;;5041380;28;20025;-52
2023/09/28 07:28:55;;;;;;;22.60;7.00;;;17.00;99.00;;;;;;5021705;28;20021;-51
2023/09/28 07:31:21;;;;;;;20.02;7.63;;;17.10;98.90;;;;;;5045549;28;20053;-51
2023/09/28 07:33:48;;;;;;;28.55;8.63;;;17.00;98.90;;;;;;5049639;28;20026;-52
2023/09/28 07:36:14;;;;;;;21.58;7.80;;;17.10;98.90;;;;;;5037279;28;20036;-51
2023/09/28 07:38:40;;;;;;;25.05;7.32;;;17.10;98.90;;;;;;5027559;28;20444;-52
2023/09/28 07:41:09;;;;;;;29.63;7.40;;;17.10;98.90;;;;;;5042718;28;20026;-52
2023/09/28 07:43:34;;;;;;;23.90;7.40;;;17.10;98.90;;;;;;5044331;28;20083;-51
2023/09/28 07:46:00;;;;;;;29.00;7.75;;;17.10;98.90;;;;;;5025629;28;20034;-52
2023/09/28 07:48:26;;;;;;;28.83;9.20;;;17.10;98.90;;;;;;5037386;28;20026;-51
2023/09/28 07:50:51;;;;;;;35.58;8.35;;;17.10;98.90;;;;;;5015991;28;20030;-52
2023/09/28 07:53:17;;;;;;;30.10;8.02;;;17.10;98.90;;;;;;5028844;28;20025;-51
2023/09/28 07:55:43;;;;;;;32.90;7.93;;;17.10;99.00;;;;;;5047620;28;20049;-51
2023/09/28 07:58:09;;;;;;;36.50;8.48;;;17.10;99.00;;;;;;5023627;28;20061;-51
2023/09/28 08:00:35;;;;;;;30.10;8.23;;;17.20;98.90;;;;;;5029210;28;20042;-51
2023/09/28 08:03:00;;;;;;;47.40;8.68;;;17.10;98.80;;;;;;5031018;28;20029;-51
2023/09/28 08:05:26;;;;;;;32.63;8.55;;;17.20;98.80;;;;;;5028429;28;20042;-51
2023/09/28 08:07:51;;;;;;;34.47;8.50;;;17.20;98.80;;;;;;5027254;28;20050;-51
2023/09/28 08:10:17;;;;;;;47.60;9.20;;;17.20;98.90;;;;;;5021609;28;20084;-51
2023/09/28 08:12:44;;;;;;;31.55;9.10;;;17.20;99.00;;;;;;5052748;28;20025;-52
2023/09/28 08:15:09;;;;;;;45.75;10.07;;;17.20;99.10;;;;;;5026027;28;20094;-51
2023/09/28 08:17:39;;;;;;;33.78;9.27;;;17.30;99.10;;;;;;5061568;28;20022;-52
2023/09/28 08:20:07;;;;;;;44.95;11.40;;;17.30;99.00;;;;;;5028310;28;20033;-52
2023/09/28 08:22:34;;;;;;;50.95;10.93;;;17.30;98.90;;;;;;5022012;28;20057;-52
2023/09/28 08:25:00;;;;;;;57.88;11.98;;;17.30;99.00;;;;;;5024649;28;20050;-52
2023/09/28 08:27:25;;;;;;;55.65;11.27;;;17.30;99.30;;;;;;4989592;28;20037;-52
2023/09/28 08:29:51;;;;;;;75.63;14.25;;;17.40;99.10;;;;;;5023598;28;20377;-52
2023/09/28 08:32:16;;;;;;;56.42;12.15;;;17.40;99.00;;;;;;5023904;28;20022;-52
2023/09/28 08:34:43;;;;;;;69.63;13.13;;;17.40;99.10;;;;;;5025847;28;20048;-51
2023/09/28 08:37:09;;;;;;;75.97;13.52;;;17.40;99.30;;;;;;5030467;28;20047;-52
2023/09/28 08:39:36;;;;;;;103.95;17.05;;;17.40;99.20;;;;;;5031595;28;20093;-51
2023/09/28 08:42:02;;;;;;;87.38;14.73;;;17.50;99.40;;;;;;5023497;28;20049;-52
2023/09/28 08:44:29;;;;;;;57.58;12.88;;;17.50;99.40;;;;;;5041925;28;20033;-52
2023/09/28 08:46:58;;;;;;;58.25;11.80;;;17.50;99.60;;;;;;5020968;28;20026;-52
2023/09/28 08:49:26;;;;;;;90.20;15.35;;;17.60;99.70;;;;;;5037308;28;20117;-51
2023/09/28 08:51:54;;;;;;;95.22;15.57;;;17.50;99.90;;;;;;5040717;28;20036;-52
2023/09/28 08:54:19;;;;;;;69.28;13.68;;;17.60;99.60;;;;;;5027720;28;20030;-52
2023/09/28 08:56:46;;;;;;;74.95;12.43;;;17.60;99.50;;;;;;5025524;28;20032;-52
2023/09/28 08:59:12;;;;;;;72.05;12.68;;;17.60;99.60;;;;;;5009034;28;20101;-52
2023/09/28 09:01:37;;;;;;;58.10;12.55;;;17.70;99.50;;;;;;5009837;28;20022;-51
2023/09/28 09:04:03;;;;;;;57.33;12.32;;;17.70;99.50;;;;;;5028499;28;20041;-51
2023/09/28 09:06:30;;;;;;;43.55;11.00;;;17.70;99.30;;;;;;5019464;28;20022;-52
2023/09/28 09:09:00;;;;;;;45.53;10.80;;;17.70;99.10;;;;;;4993035;28;20026;-51
2023/09/28 09:11:27;;;;;;;88.72;15.35;;;17.70;99.10;;;;;;5039018;28;20592;-52
2023/09/28 09:13:54;;;;;;;51.05;11.60;;;17.70;99.30;;;;;;5025123;28;20029;-52
2023/09/28 09:16:24;;;;;;;38.00;10.13;;;17.70;99.20;;;;;;5030106;28;20025;-52
2023/09/28 09:18:53;;;;;;;41.15;10.20;;;17.80;99.20;;;;;;5038993;28;20029;-52
2023/09/28 09:21:19;;;;;;;41.50;10.55;;;17.80;99.30;;;;;;5024691;28;20033;-52
2023/09/28 09:24:05;;;;;;;53.20;10.32;;;17.80;99.40;;;;;;5024817;28;20057;-52
2023/09/28 09:26:39;;;;;;;35.30;9.32;;;17.80;99.70;;;;;;5022042;28;20076;-52
2023/09/28 09:29:05;;;;;;;34.95;8.93;;;17.90;99.80;;;;;;5026134;28;20035;-52
2023/09/28 09:31:30;;;;;;;35.03;8.73;;;17.90;99.90;;;;;;5028711;28;20033;-52
2023/09/28 09:33:56;;;;;;;35.83;9.27;;;18.00;99.90;;;;;;5028981;28;20115;-52
2023/09/28 09:36:22;;;;;;;43.00;9.73;;;18.00;99.90;;;;;;5043507;28;20037;-52
2023/09/28 09:38:50;;;;;;;38.30;9.05;;;18.00;99.90;;;;;;5041222;28;20104;-52
2023/09/28 09:41:16;;;;;;;33.95;8.68;;;18.00;99.90;;;;;;5025843;28;20520;-52
2023/09/28 09:43:41;;;;;;;28.05;7.88;;;18.10;99.90;;;;;;5027384;28;20038;-52
2023/09/28 09:46:08;;;;;;;41.95;8.15;;;18.10;99.90;;;;;;5026549;28;20025;-52
2023/09/28 09:48:39;;;;;;;38.35;8.90;;;18.10;99.40;;;;;;5034102;28;20441;-52
2023/09/28 09:51:11;;;;;;;22.15;7.75;;;18.10;99.30;;;;;;5054506;28;20025;-50
2023/09/28 09:53:41;;;;;;;29.92;6.80;;;18.20;99.00;;;;;;5047114;28;20018;-52
2023/09/28 09:56:07;;;;;;;22.80;6.53;;;18.20;98.70;;;;;;5038044;28;21520;-52
2023/09/28 09:58:38;;;;;;;30.67;7.65;;;18.30;98.50;;;;;;5015707;28;20030;-52
2023/09/28 10:01:10;;;;;;;23.45;6.05;;;18.30;98.30;;;;;;5033253;28;20025;-52
2023/09/28 10:03:36;;;;;;;22.55;6.20;;;18.40;98.20;;;;;;5008483;28;20030;-52
2023/09/28 10:06:01;;;;;;;22.30;6.63;;;18.40;97.80;;;;;;5051275;28;20093;-52
2023/09/28 10:08:27;;;;;;;38.53;9.48;;;18.50;97.60;;;;;;5045998;28;20026;-52
2023/09/28 10:10:52;;;;;;;37.03;8.50;;;18.50;97.90;;;;;;5008520;28;20026;-52
2023/09/28 10:13:18;;;;;;;27.63;7.32;;;18.50;97.70;;;;;;5033713;28;20022;-52
2023/09/28 10:15:45;;;;;;;26.65;6.95;;;18.60;97.30;;;;;;5033031;28;20056;-52
2023/09/28 10:18:11;;;;;;;30.55;8.07;;;18.60;97.30;;;;;;5008549;28;20086;-52
2023/09/28 10:20:37;;;;;;;45.53;9.80;;;18.60;97.20;;;;;;5036549;28;20086;-52
2023/09/28 10:23:13;;;;;;;33.00;8.18;;;18.70;97.30;;;;;;5004997;28;20033;-53
2023/09/28 10:26:12;;;;;;;19.75;7.00;;;18.70;97.30;;;;;;5001387;28;20080;-52
2023/09/28 10:29:01;;;;;;;28.23;7.78;;;18.80;96.90;;;;;;5021665;28;20058;-52
2023/09/28 10:31:28;;;;;;;45.22;9.40;;;18.80;96.80;;;;;;5021034;28;20026;-52
2023/09/28 10:34:01;;;;;;;45.47;9.35;;;18.90;96.90;;;;;;5034523;28;20026;-52
2023/09/28 10:36:27;;;;;;;57.70;10.95;;;19.00;96.90;;;;;;5022145;28;20033;-52
2023/09/28 10:39:15;;;;;;;45.75;9.10;;;19.00;96.70;;;;;;5049168;28;20029;-52
2023/09/28 10:41:46;;;;;;;21.95;6.72;;;19.10;96.40;;;;;;5033963;28;20022;-52
2023/09/28 10:44:13;;;;;;;33.22;6.72;;;19.10;95.90;;;;;;5016116;28;20030;-52
2023/09/28 10:46:40;;;;;;;22.60;5.85;;;19.10;95.40;;;;;;5039275;28;20101;-52
2023/09/28 10:49:05;;;;;;;29.02;7.03;;;19.20;95.20;;;;;;5024491;28;20045;-52
2023/09/28 10:51:31;;;;;;;36.72;8.02;;;19.20;95.00;;;;;;5016755;28;20048;-52
2023/09/28 10:53:57;;;;;;;26.55;6.70;;;19.20;94.80;;;;;;5026247;28;20049;-53
2023/09/28 10:56:22;;;;;;;41.33;8.10;;;19.30;94.50;;;;;;5033623;28;20186;-52
2023/09/28 10:58:49;;;;;;;49.83;9.68;;;19.30;94.40;;;;;;5050619;28;20409;-53
2023/09/28 11:01:15;;;;;;;39.47;7.60;;;19.40;94.50;;;;;;5032897;28;20029;-52
2023/09/28 11:03:41;;;;;;;29.13;8.00;;;19.40;94.40;;;;;;5021684;28;20022;-52
2023/09/28 11:06:07;;;;;;;25.33;7.63;;;19.50;94.20;;;;;;5023948;28;20037;-52
2023/09/28 11:08:33;;;;;;;38.58;8.52;;;19.50;94.10;;;;;;5025334;28;20038;-52
2023/09/28 11:11:01;;;;;;;31.27;7.70;;;19.90;94.20;;;;;;5020685;28;20085;-52
2023/09/28 11:13:27;;;;;;;19.10;6.13;;;19.60;94.10;;;;;;5024384;28;20032;-52
2023/09/28 11:15:53;;;;;;;21.73;6.63;;;19.60;93.80;;;;;;5020976;28;20038;-52
2023/09/28 11:18:19;;;;;;;27.88;6.82;;;19.70;93.60;;;;;;5027789;28;20093;-52
2023/09/28 11:20:45;;;;;;;36.90;8.63;;;19.70;93.50;;;;;;5025562;28;20033;-52
2023/09/28 11:23:11;;;;;;;31.83;7.65;;;19.80;93.40;;;;;;4996152;28;20052;-52
2023/09/28 11:25:38;;;;;;;27.95;7.03;;;19.90;93.20;;;;;;5023188;28;20113;-52
2023/09/28 11:28:05;;;;;;;15.25;6.32;;;19.90;93.00;;;;;;5004706;28;20117;-52
2023/09/28 11:30:31;;;;;;;21.42;6.05;;;19.90;92.80;;;;;;5015232;28;20124;-52
2023/09/28 11:32:57;;;;;;;16.33;6.78;;;20.00;92.60;;;;;;5026390;28;20026;-52
2023/09/28 11:35:23;;;;;;;29.42;7.55;;;20.10;92.50;;;;;;5018195;28;20040;-52
2023/09/28 11:37:51;;;;;;;48.90;8.43;;;20.10;92.40;;;;;;5019152;28;20034;-52
2023/09/28 11:40:16;;;;;;;30.27;8.13;;;20.20;92.40;;;;;;5031699;28;20037;-52
2023/09/28 11:42:45;;;;;;;25.00;7.45;;;20.20;92.20;;;;;;5013455;28;20425;-52
2023/09/28 11:45:14;;;;;;;45.60;8.45;;;20.30;92.00;;;;;;5023774;28;20113;-53
2023/09/28 11:47:39;;;;;;;44.20;10.82;;;20.30;92.00;;;;;;5019151;28;20088;-53
2023/09/28 11:50:07;;;;;;;52.20;10.73;;;20.40;92.00;;;;;;5032374;28;20026;-52
2023/09/28 11:52:35;;;;;;;49.45;10.75;;;20.40;91.80;;;;;;5016997;28;20500;-52
2023/09/28 11:55:01;;;;;;;63.72;11.43;;;20.50;91.60;;;;;;5014805;28;20094;-52
2023/09/28 11:57:27;;;;;;;50.60;10.48;;;20.50;91.50;;;;;;5006952;28;20049;-52
2023/09/28 11:59:52;;;;;;;42.55;9.48;;;20.60;91.20;;;;;;5025377;28;20041;-52
2023/09/28 12:02:20;;;;;;;42.45;9.48;;;20.60;91.10;;;;;;5016100;28;20029;-53
2023/09/28 12:04:45;;;;;;;29.85;8.63;;;20.70;90.80;;;;;;5060564;28;20057;-52
2023/09/28 12:07:11;;;;;;;39.58;9.05;;;20.80;90.60;;;;;;5037907;28;20025;-52
2023/09/28 12:09:37;;;;;;;41.08;9.13;;;20.80;90.70;;;;;;5041195;28;20030;-52
2023/09/28 12:12:02;;;;;;;45.90;8.90;;;20.90;90.40;;;;;;5028233;28;20030;-53
2023/09/28 12:14:28;;;;;;;47.45;10.27;;;20.90;90.30;;;;;;5031461;28;20038;-52
2023/09/28 12:16:57;;;;;;;50.15;9.80;;;20.90;90.30;;;;;;5043542;28;20426;-52
2023/09/28 12:19:23;;;;;;;48.20;9.90;;;21.00;90.10;;;;;;5036660;28;20034;-52
2023/09/28 12:21:48;;;;;;;53.03;10.27;;;21.10;90.00;;;;;;5026713;28;20049;-52
2023/09/28 12:24:14;;;;;;;52.10;11.25;;;21.10;89.60;;;;;;5021897;28;20130;-52
2023/09/28 12:26:39;;;;;;;71.10;11.60;;;21.20;89.10;;;;;;5036622;28;20037;-52
2023/09/28 12:29:05;;;;;;;48.67;9.30;;;21.30;88.70;;;;;;5037423;28;20037;-52
2023/09/28 12:31:31;;;;;;;58.72;10.57;;;21.30;87.20;;;;;;5021123;28;20022;-52
2023/09/28 12:33:56;;;;;;;66.32;12.27;;;21.40;87.70;;;;;;5022587;28;20500;-53
2023/09/28 12:36:22;;;;;;;37.72;9.50;;;21.40;87.90;;;;;;5028481;28;20382;-52